Date,TemperatureHighF,TemperatureAvgF,TemperatureLowF,DewpointHighF,DewpointAvgF,DewpointLowF,HumidityHigh,HumidityAvg,HumidityLow,PressureMaxIn,PressureMinIn,WindSpeedMaxMPH,WindSpeedAvgMPH,GustSpeedMaxMPH,PrecipitationSumIn
2014-1-1,32,25,17,13,9,2,60,50,40,30.18,29.82,25,8,231,0.00
2014-1-2,38,26,14,15,9,3,63,50,39,30.15,29.88,17,8,17,0.00
2014-1-3,61,30,17,23,11,4,57,47,14,29.91,29.50,19,10,20,0.00
2014-1-4,25,23,21,7,-1,-7,48,34,27,29.91,26.46,21,13,24,0.00
2014-1-5,8,8,8,-14,-14,-14,35,35,35,26.70,26.70,15,14,15,0.00
2014-1-7,45,37,30,24,21,19,67,53,40,30.06,29.94,14,8,18,0.00
2014-1-8,32,22,18,21,19,16,95,86,62,30.26,30.06,25,13,26,0.00
2014-1-9,40,22,11,26,18,9,96,86,55,30.20,29.78,27,10,27,0.00
2014-1-10,42,32,20,35,24,18,96,73,52,29.84,29.65,33,12,33,0.00
2014-1-11,52,40,26,26,23,19,77,54,34,29.97,29.57,28,12,28,0.00
2014-1-12,49,41,29,32,25,18,76,55,33,29.85,29.45,31,13,31,0.00
2014-1-13,53,37,21,31,22,15,85,58,29,29.93,29.82,40,14,40,0.00
2014-1-14,42,31,21,32,22,14,92,70,45,30.35,29.89,46,16,46,0.00
2014-1-15,56,38,23,29,23,18,83,60,28,30.30,29.94,39,13,39,0.00
2014-1-16,41,33,20,25,13,7,68,45,25,30.27,29.98,58,25,58,0.00
2014-1-17,47,32,14,22,17,10,83,56,35,30.26,29.99,24,10,24,0.00
2014-1-18,47,38,22,25,18,9,63,45,27,30.14,29.94,45,17,45,0.00
2014-1-19,64,43,25,25,18,12,70,41,15,30.06,29.88,37,12,37,0.00
2014-1-20,45,34,14,22,17,9,83,53,30,30.44,29.89,54,16,54,0.00
2014-1-21,57,30,9,23,14,6,90,58,17,30.43,30.08,45,12,45,0.00
2014-1-22,34,24,6,25,14,-8,82,67,53,30.63,30.17,30,12,30,0.00
2014-1-23,23,9,-4,6,-3,-13,82,59,30,30.90,30.52,24,9,24,0.00
2014-1-24,57,38,10,32,17,5,78,44,26,30.53,30.02,46,19,46,0.00
2014-1-25,57,45,36,31,24,20,55,45,30,30.06,29.76,32,14,32,0.00
2014-1-26,54,33,12,29,17,-6,78,52,37,30.32,29.68,52,19,52,0.00
2014-1-27,18,11,6,5,-2,-7,85,56,38,30.47,30.31,15,6,18,0.00
2014-1-28,27,13,-1,4,-2,-8,74,53,25,30.55,30.25,30,9,30,0.00
2014-1-29,54,32,7,22,11,-1,73,47,25,30.25,29.44,29,10,29,0.00
2014-1-30,46,31,20,36,22,17,92,72,39,29.96,29.43,40,14,40,0.00
2014-1-31,20,17,12,18,15,10,92,90,86,30.10,29.94,18,8,21,0.00
2014-2-1,19,12,4,12,8,1,92,84,69,30.42,29.97,28,9,28,0.00
2014-2-2,26,10,-4,16,6,-8,92,83,65,30.43,30.28,16,4,16,0.00
2014-2-3,23,17,9,16,12,6,91,83,73,30.28,30.11,22,7,22,0.00
2014-2-4,19,8,-3,16,5,-6,91,87,83,30.68,30.21,39,19,39,0.00
2014-2-5,3,-4,-11,-4,-8,-15,85,81,73,30.90,30.68,20,9,20,0.00
2014-2-6,5,-2,-10,-2,-6,-14,86,82,74,30.82,30.42,18,7,19,0.00
2014-2-7,12,7,0,8,3,-3,88,84,72,30.43,30.09,21,10,21,0.00
2014-2-8,28,20,11,19,14,8,91,80,67,30.31,30.07,24,8,24,0.00
2014-2-9,16,10,9,12,7,6,89,86,80,30.50,30.29,22,9,24,0.00
2014-2-10,14,10,6,12,8,3,91,88,84,30.51,30.38,25,12,25,0.00
2014-2-11,33,21,14,27,19,12,93,91,78,30.41,30.08,29,6,29,0.00
2014-2-12,32,29,17,27,24,14,93,82,76,30.26,29.82,29,11,29,0.01
2014-2-13,47,39,29,37,32,25,87,75,61,29.93,29.67,27,11,34,0.00
2014-2-14,44,37,31,33,28,26,93,71,52,30.02,29.79,30,13,30,0.00
2014-2-15,49,39,32,36,31,25,88,74,41,30.10,29.72,41,14,41,0.00
2014-2-16,59,42,28,40,33,25,91,72,44,30.06,29.64,48,15,48,0.00
2014-2-17,55,43,31,35,24,18,91,53,23,30.01,29.74,48,14,48,0.00
2014-2-18,57,43,28,28,22,16,74,45,25,29.97,29.66,49,15,49,0.00
2014-2-19,56,41,27,33,25,21,96,57,28,29.95,29.47,49,16,49,0.00
2014-2-20,36,30,21,30,21,13,96,70,50,29.93,29.63,53,18,53,0.00
2014-2-21,46,33,22,25,20,14,83,61,32,29.94,29.86,32,10,32,0.00
2014-2-22,37,29,22,29,24,19,95,82,56,30.19,29.92,25,11,25,0.00
2014-2-23,22,18,17,21,17,15,94,93,91,30.38,30.18,19,12,23,0.00
2014-2-24,28,18,4,24,16,0,94,88,79,30.52,30.13,31,10,31,0.00
2014-2-25,13,6,0,10,3,-4,90,84,77,30.69,30.40,19,4,19,0.00
2014-2-26,26,8,-12,18,4,-16,89,81,67,30.63,30.22,29,8,29,0.00
2014-2-27,22,16,3,16,11,-3,88,79,58,30.24,29.81,29,14,29,0.00
2014-2-28,29,22,12,25,18,8,88,84,79,30.21,29.80,36,17,36,0.00
2014-3-1,12,4,-3,8,0,-8,88,82,77,30.59,30.17,30,17,30,0.00
2014-3-2,7,0,-5,-1,-6,-11,84,75,63,30.75,30.59,16,6,16,0.00
2014-3-3,37,19,-2,30,14,-6,87,81,75,30.63,30.10,29,12,29,0.00
2014-3-4,47,36,22,37,30,19,95,80,62,30.10,29.84,36,10,36,0.00
2014-3-5,40,32,26,35,29,24,94,89,80,30.23,30.08,19,8,21,0.00
2014-3-6,63,46,27,42,33,26,94,66,35,30.13,29.69,15,8,25,0.00
2014-3-7,47,34,25,36,30,22,95,85,60,30.26,29.69,34,18,34,0.00
2014-3-8,54,38,25,36,30,22,96,75,40,30.37,30.22,18,7,18,0.00
2014-3-9,73,51,32,34,29,20,85,51,15,30.22,29.85,33,13,33,0.00
2014-3-10,74,54,38,35,29,19,68,41,13,29.88,29.44,28,11,28,0.00
2014-3-11,54,38,30,38,31,25,96,78,33,30.28,29.39,41,20,41,0.00
2014-3-12,53,38,26,26,23,14,88,59,24,30.36,30.15,29,13,30,0.00
2014-3-13,66,46,24,30,22,9,86,48,11,30.15,29.68,27,8,27,0.00
2014-3-14,62,46,30,29,25,18,82,48,19,29.98,29.79,26,11,26,0.00
2014-3-15,56,41,33,39,30,24,92,66,31,30.29,29.73,41,17,41,0.01
2014-3-16,51,36,26,30,27,24,90,70,42,30.35,29.91,20,8,20,0.00
2014-3-17,70,52,34,32,26,13,81,44,12,29.91,29.18,35,11,35,0.00
2014-3-18,50,37,30,34,30,22,96,77,39,30.06,29.23,43,21,43,0.00
2014-3-19,50,37,23,31,25,20,91,65,32,30.20,30.03,28,11,28,0.00
2014-3-20,38,32,29,28,23,20,76,70,65,30.04,29.96,17,6,17,0.00
2014-3-21,49,40,27,26,22,15,81,52,27,30.28,29.92,41,19,41,0.00
2014-3-22,30,22,16,23,19,13,92,87,76,30.61,30.26,24,12,24,0.00
2014-3-23,48,23,3,35,19,1,93,85,56,30.60,30.13,30,11,30,0.00
2014-3-24,41,32,25,27,24,21,93,73,45,30.39,30.25,30,12,30,0.00
2014-3-25,49,33,22,27,20,9,85,60,40,30.43,29.89,34,15,34,0.00
2014-3-26,74,48,29,44,30,16,86,56,11,29.89,29.22,40,16,40,0.00
2014-3-27,47,38,29,43,31,26,95,78,53,29.93,29.21,35,16,35,0.01
2014-3-28,56,39,25,36,26,21,95,67,28,30.23,29.89,43,14,43,0.00
2014-3-29,68,46,22,31,23,16,94,52,15,30.24,29.84,38,13,38,0.00
2014-3-30,71,55,40,34,29,24,60,39,18,29.84,29.29,25,11,30,0.00
2014-3-31,60,38,25,39,28,19,94,69,30,30.03,29.25,64,28,64,0.01
2014-4-1,48,34,23,25,22,18,85,62,38,30.11,29.89,38,13,38,0.00
2014-4-2,45,36,30,32,27,21,91,69,59,29.95,29.76,27,13,27,0.00
2014-4-3,43,36,26,34,29,22,97,80,52,30.10,29.78,40,17,40,0.00
2014-4-4,56,39,22,30,25,20,92,63,30,30.17,29.98,29,10,29,0.00
2014-4-5,63,48,31,34,29,24,79,52,24,29.99,29.75,27,10,29,0.00
2014-4-6,63,47,33,37,33,28,96,65,28,29.86,29.68,28,9,28,0.00
2014-4-7,53,43,31,37,30,19,90,62,27,30.11,29.85,50,18,55,0.00
2014-4-8,67,48,29,32,28,21,76,50,25,30.15,29.97,27,10,27,0.00
2014-4-9,82,60,37,36,31,25,74,39,14,29.97,29.59,38,12,38,0.00
2014-4-10,66,55,42,38,34,29,72,47,30,29.93,29.66,32,10,34,0.00
2014-4-11,76,58,40,40,35,29,68,44,22,29.94,29.58,28,9,28,0.00
2014-4-12,73,60,43,38,35,30,73,41,23,29.58,29.45,35,13,35,0.00
2014-4-13,52,34,28,35,28,20,95,79,47,30.22,29.54,54,27,54,0.00
2014-4-14,43,32,22,25,19,14,79,60,32,30.36,30.19,38,14,38,0.00
2014-4-15,65,44,22,31,23,17,84,51,16,30.21,29.58,38,11,38,0.00
2014-4-16,51,44,32,39,33,28,86,66,50,30.17,29.54,49,18,49,0.00
2014-4-17,54,38,28,38,32,26,91,77,53,30.29,30.10,37,12,37,0.00
2014-4-18,74,54,33,45,40,32,95,63,31,30.11,29.78,41,20,45,0.00
2014-4-19,66,56,46,46,43,41,87,63,41,29.91,29.71,32,14,32,0.00
2014-4-20,76,60,44,52,46,39,87,63,36,29.92,29.77,19,6,19,0.00
2014-4-21,70,58,47,44,28,21,65,34,17,30.10,29.88,30,14,30,0.00
2014-4-22,77,60,40,48,36,28,66,43,27,30.05,29.54,59,24,59,0.00
2014-4-23,76,62,52,47,39,23,73,46,19,29.67,29.37,46,20,46,0.00
2014-4-24,66,55,42,37,24,10,78,36,12,29.81,29.63,34,13,34,0.00
2014-4-25,76,60,41,36,28,20,57,33,16,29.79,29.52,27,9,27,0.00
2014-4-26,82,65,50,45,37,23,74,40,12,29.53,29.04,42,13,42,0.00
2014-4-27,68,54,36,48,35,16,94,57,14,29.29,28.95,49,17,49,0.11
2014-4-28,45,40,36,39,36,34,94,86,71,29.77,29.29,59,31,59,0.36
2014-4-29,42,37,34,36,32,29,95,81,68,30.19,29.77,48,29,54,0.02
2014-4-30,51,42,33,32,27,23,84,59,34,30.20,30.10,45,23,45,0.00
2014-5-1,57,46,34,33,28,23,84,52,30,30.14,30.01,41,17,41,0.00
2014-5-2,76,54,31,46,33,25,79,50,23,30.03,29.74,43,10,43,0.04
2014-5-3,78,59,43,47,44,39,86,60,27,29.85,29.67,30,12,30,0.00
2014-5-4,67,55,43,46,43,40,91,66,42,29.74,29.64,26,14,26,0.00
2014-5-5,72,58,45,48,44,40,86,63,39,29.79,29.60,26,12,26,0.00
2014-5-6,74,61,48,52,49,43,86,66,45,29.61,29.38,26,9,26,0.00
2014-5-7,72,59,48,54,50,44,89,73,51,29.57,29.37,39,16,39,0.07
2014-5-8,48,42,34,46,38,32,96,87,72,29.94,29.47,42,19,42,0.31
2014-5-9,71,51,31,46,36,30,96,63,23,29.95,29.68,27,8,27,0.00
2014-5-10,74,59,44,48,39,31,83,52,22,29.72,29.58,39,10,39,0.00
2014-5-11,52,45,38,46,42,37,96,90,80,29.92,29.56,45,26,45,0.24
2014-5-12,47,38,32,37,33,29,97,82,53,30.31,29.85,43,20,43,0.38
2014-5-13,57,44,32,38,31,23,88,63,28,30.39,30.27,40,13,40,0.00
2014-5-14,62,46,32,41,35,26,92,70,27,30.37,30.19,45,12,45,0.00
2014-5-15,59,49,39,37,28,19,90,47,22,30.24,30.07,29,9,29,0.00
2014-5-16,64,50,40,48,36,26,89,62,43,30.09,29.90,49,13,49,0.01
2014-5-17,53,45,36,46,41,34,96,85,65,30.09,30.02,23,9,23,0.00
2014-5-18,78,60,44,55,49,42,97,70,40,30.04,29.49,49,22,49,0.00
2014-5-19,86,69,55,58,52,37,89,61,18,29.61,29.43,42,16,42,0.00
2014-5-20,78,65,54,52,48,42,83,59,31,29.75,29.60,33,16,33,0.00
2014-5-21,76,67,53,52,49,46,80,53,40,29.99,29.88,29,16,31,0.01
2014-5-22,76,65,53,57,53,47,88,66,46,30.04,29.92,24,12,24,0.00
2014-5-23,66,61,58,60,58,54,97,90,79,30.01,29.90,31,11,31,0.29
2014-5-24,71,64,58,61,59,57,99,87,65,29.93,29.78,29,14,29,0.01
2014-5-25,75,66,58,63,59,52,98,80,47,29.81,29.72,27,12,27,0.01
2014-5-26,83,69,56,60,53,44,92,61,27,29.82,29.73,26,7,26,0.00
2014-5-27,85,70,55,56,52,46,86,57,26,29.82,29.75,15,5,15,0.00
2014-5-28,89,76,62,59,53,48,78,48,26,29.83,29.75,28,9,28,0.00
2014-5-29,89,76,60,59,52,41,84,49,20,29.79,29.70,34,13,34,0.00
2014-5-30,86,74,61,61,57,51,96,59,32,29.88,29.72,43,17,43,0.18
2014-5-31,80,70,61,65,61,59,96,77,50,29.87,29.67,24,6,24,0.33
2014-6-1,77,66,55,64,58,50,95,77,55,29.80,29.57,42,11,42,0.00
2014-6-2,80,67,53,57,53,48,95,66,38,29.92,29.80,19,9,19,0.00
2014-6-3,96,74,58,67,61,40,96,68,16,29.83,29.35,53,21,53,0.00
2014-6-4,75,65,58,60,57,55,95,77,55,29.79,29.59,25,12,31,0.00
2014-6-5,82,69,55,60,51,39,95,59,22,29.80,29.72,30,10,30,0.00
2014-6-6,81,65,55,64,55,50,94,73,38,29.83,29.58,60,16,60,0.98
2014-6-7,64,56,48,54,51,46,98,83,67,30.04,29.83,31,14,31,0.00
2014-6-8,65,57,48,59,54,48,98,88,77,30.03,29.70,46,19,46,1.79
2014-6-9,60,52,47,54,49,46,98,90,71,29.98,29.80,36,16,39,0.70
2014-6-10,75,61,43,58,53,42,98,77,52,29.94,29.66,30,10,30,0.00
2014-6-11,80,64,56,63,56,51,94,77,54,29.89,29.58,34,12,34,0.00
2014-6-12,71,60,49,51,47,43,89,64,40,30.06,29.87,23,9,23,0.00
2014-6-13,79,66,52,62,56,48,87,70,53,29.98,29.45,49,25,49,0.00
2014-6-14,77,67,54,64,59,50,94,77,52,29.67,29.30,61,18,61,0.24
2014-6-15,74,62,48,54,48,41,94,64,35,29.77,29.54,32,12,32,0.00
2014-6-16,90,76,63,68,60,50,96,64,28,29.69,29.37,38,13,38,0.00
2014-6-17,91,76,62,65,57,43,97,58,22,29.47,29.37,24,11,24,0.00
2014-6-18,86,72,54,65,56,48,87,59,38,29.75,29.36,47,13,47,0.46
2014-6-19,79,68,52,57,51,44,94,57,34,29.89,29.71,33,9,38,0.00
2014-6-20,90,74,61,69,62,54,85,68,42,29.90,29.64,23,8,23,0.00
2014-6-21,86,74,62,65,60,54,91,65,35,29.73,29.58,44,13,44,0.00
2014-6-22,80,70,60,64,61,56,91,73,46,29.81,29.61,31,10,31,0.10
2014-6-23,78,68,58,62,58,54,95,72,45,29.91,29.73,41,8,41,0.52
2014-6-24,82,69,61,63,59,55,94,74,41,29.91,29.80,32,7,32,0.00
2014-6-25,81,70,60,64,60,54,96,72,48,29.87,29.68,51,12,51,0.00
2014-6-26,82,73,60,70,62,53,88,69,52,29.72,29.43,44,16,44,0.10
2014-6-27,79,66,57,69,60,54,96,82,63,29.57,29.35,47,10,47,0.66
2014-6-28,82,68,56,60,56,48,97,69,31,29.68,29.51,23,8,23,0.00
2014-6-29,89,75,62,71,60,49,93,65,26,29.71,29.55,24,7,24,0.08
2014-6-30,79,72,63,71,61,44,96,70,35,29.82,29.46,26,12,29,0.03
2014-7-1,75,66,56,52,49,46,77,57,37,30.03,29.81,38,14,38,0.00
2014-7-2,78,66,50,55,50,46,89,60,37,30.11,29.98,23,7,23,0.00
2014-7-3,82,70,55,64,59,52,91,71,53,30.03,29.87,38,17,38,0.00
2014-7-4,86,74,62,69,63,50,89,70,39,29.93,29.74,33,16,33,0.00
2014-7-5,95,79,63,68,59,52,83,55,25,29.89,29.70,19,8,19,0.00
2014-7-6,90,79,67,67,61,57,81,57,36,29.77,29.69,28,10,28,0.00
2014-7-7,83,74,64,64,60,58,87,62,51,29.87,29.66,35,10,35,0.00
2014-7-8,83,71,59,61,54,48,94,58,31,29.99,29.87,24,8,24,0.00
2014-7-9,90,75,61,65,59,53,78,59,37,29.92,29.65,39,15,39,0.00
2014-7-10,90,75,62,69,63,59,96,70,39,29.76,29.62,38,19,38,0.00
2014-7-11,86,75,66,71,68,63,95,80,57,29.83,29.68,31,11,31,0.29
2014-7-12,82,73,66,68,66,63,98,80,54,29.96,29.77,27,10,27,0.01
2014-7-13,87,74,64,66,61,50,93,68,30,29.99,29.85,19,5,19,0.00
2014-7-14,76,67,56,62,54,42,94,65,34,30.12,29.87,27,12,27,0.00
2014-7-15,72,62,49,56,49,45,88,65,47,30.12,29.92,25,9,25,0.00
2014-7-16,64,58,55,56,54,50,94,84,67,29.97,29.87,25,13,25,0.20
2014-7-17,69,61,55,59,56,54,97,86,66,29.99,29.89,23,9,23,0.00
2014-7-18,81,66,55,65,60,54,98,82,56,29.92,29.72,34,15,34,0.00
2014-7-19,83,71,61,70,64,61,99,81,58,29.83,29.65,30,14,30,0.00
2014-7-20,100,82,64,66,58,45,99,56,16,29.65,29.56,21,9,21,0.00
2014-7-21,99,89,76,64,56,48,57,36,18,29.77,29.64,19,8,29,0.00
2014-7-22,91,79,68,66,61,58,84,56,34,30.02,29.72,32,12,32,0.00
2014-7-23,92,74,64,68,64,56,96,74,31,30.15,29.89,42,15,42,0.03
2014-7-24,102,81,64,69,59,45,93,56,15,29.91,29.54,25,14,37,0.00
2014-7-25,90,78,65,68,62,56,81,59,38,29.70,29.55,22,9,28,0.00
2014-7-26,89,76,66,68,64,58,89,67,36,29.87,29.61,29,11,29,0.00
2014-7-27,84,73,61,61,53,44,91,54,29,30.09,29.87,19,8,19,0.00
2014-7-28,85,71,56,61,56,50,84,61,40,30.14,29.97,29,13,29,0.00
2014-7-29,81,69,57,63,59,55,94,74,51,30.03,29.90,29,14,29,0.27
2014-7-30,78,68,60,62,59,52,96,75,44,30.04,29.98,16,4,16,0.02
2014-7-31,86,72,57,62,55,45,97,61,25,30.01,29.88,25,7,25,0.00
2014-8-1,89,76,64,58,51,41,77,46,20,29.94,29.86,18,5,18,0.00
2014-8-2,91,74,58,60,54,44,84,54,21,29.97,29.86,23,9,23,0.00
2014-8-3,92,77,60,60,56,49,87,52,24,29.93,29.80,27,7,27,0.00
2014-8-4,92,76,64,60,57,50,82,56,24,29.85,29.74,29,10,29,0.00
2014-8-5,92,81,70,64,61,56,75,52,35,29.73,29.67,28,6,28,0.00
2014-8-6,85,73,63,70,64,61,92,74,48,29.88,29.68,34,8,34,0.13
2014-8-7,88,73,64,67,64,58,97,76,40,29.83,29.66,28,5,28,0.00
2014-8-8,86,72,59,62,59,55,97,68,35,29.83,29.71,29,6,29,0.01
2014-8-9,89,71,61,69,64,59,97,79,39,29.92,29.70,53,11,53,0.86
2014-8-11,81,73,59,63,60,56,95,67,51,30.10,29.99,16,7,16,0.00
2014-8-12,82,71,59,61,58,54,86,65,46,30.06,29.89,27,12,27,0.00
2014-8-13,90,74,60,64,61,57,89,65,38,29.94,29.78,29,15,29,0.00
2014-8-14,88,76,64,67,64,61,90,68,46,29.82,29.61,33,15,33,0.00
2014-8-15,90,77,66,67,63,54,94,67,31,29.70,29.64,24,9,24,0.02
2014-8-16,92,77,64,67,63,58,88,66,34,29.78,29.68,22,7,22,0.00
2014-8-17,96,78,64,66,61,44,89,62,17,29.78,29.61,34,11,34,0.00
2014-8-18,89,72,59,61,57,51,90,63,32,29.76,29.66,35,9,38,0.00
2014-8-19,90,75,61,66,60,53,89,61,34,29.72,29.51,37,10,37,0.11
2014-8-20,90,76,66,65,62,57,92,66,35,29.60,29.51,18,5,18,0.00
2014-8-21,91,78,66,64,58,50,83,54,27,29.73,29.59,22,7,22,0.00
2014-8-22,82,71,64,66,63,56,95,76,42,29.82,29.69,26,9,26,0.11
2014-8-23,83,70,62,66,63,56,97,80,49,29.73,29.57,38,8,38,0.21
2014-8-24,82,70,60,60,52,45,93,57,29,29.79,29.66,21,9,21,0.01
2014-8-25,79,68,59,59,57,54,93,69,45,30.03,29.76,26,9,26,0.02
2014-8-26,76,67,58,66,61,56,94,81,65,30.03,29.84,69,12,69,0.18
2014-8-27,76,67,60,68,64,59,97,90,72,29.96,29.79,31,12,31,0.85
2014-8-28,77,66,58,65,60,55,98,82,56,29.85,29.73,33,9,33,0.24
2014-8-29,84,68,54,59,55,48,94,66,30,29.85,29.73,26,10,26,0.00
2014-8-30,89,71,58,62,57,52,92,65,30,29.85,29.59,27,10,27,0.00
2014-8-31,72,66,55,60,57,51,88,73,55,29.70,29.55,32,8,32,0.00
2014-9-1,76,62,48,57,52,45,96,72,39,29.91,29.71,31,8,31,0.02
2014-9-2,84,68,50,64,57,48,94,72,38,29.93,29.70,29,10,29,0.00
2014-9-3,94,77,62,71,66,58,98,72,35,29.70,29.43,24,11,26,0.00
2014-9-4,76,69,60,59,47,36,85,48,27,30.02,29.43,35,14,37,0.00
2014-9-5,66,57,50,54,50,46,93,77,58,30.20,29.99,19,6,19,0.14
2014-9-6,74,63,55,55,52,50,94,71,47,30.22,30.06,23,7,23,0.00
2014-9-7,82,66,50,60,55,48,93,69,42,30.07,29.75,34,14,37,0.00
2014-9-8,90,73,55,58,50,37,96,53,17,29.75,29.63,18,6,18,0.00
2014-9-9,77,70,55,65,58,51,95,68,53,29.67,29.48,30,8,34,0.04
2014-9-10,58,51,46,54,48,45,96,87,71,30.08,29.67,28,14,28,0.03
2014-9-11,46,42,33,45,40,32,98,96,93,30.50,30.08,29,14,30,0.17
2014-9-12,50,40,33,36,34,32,98,82,56,30.56,30.36,19,9,19,0.03
2014-9-13,62,45,33,47,40,32,96,83,56,30.36,30.10,33,11,33,0.00
2014-9-14,73,57,41,59,51,40,96,81,59,30.14,29.86,35,13,38,0.00
2014-9-15,66,56,49,54,45,40,96,71,44,30.20,29.92,29,11,29,0.00
2014-9-16,84,63,47,60,53,43,93,73,35,30.12,29.82,31,11,31,0.00
2014-9-17,86,69,51,63,58,50,98,72,36,29.82,29.69,22,8,24,0.00
2014-9-18,68,63,59,64,62,58,99,94,83,29.78,29.70,25,11,25,0.00
2014-9-19,92,73,55,62,57,51,98,65,26,29.75,29.61,25,8,25,0.01
2014-9-20,83,70,58,62,52,46,88,56,31,30.05,29.66,21,10,21,0.00